FBY967S LEPP-LESO
Flight info
| Callsign | FBY967S |
|---|---|
| Flight time | N/A |
| Altitude | 8500 |
| Route | VFR |
| Aircraft | P06T/L-V/N |
Departure
| Time | N/A |
|---|---|
| Airport | Pamplona Airport (LEPP) |
Arrival
| Time | 2026-05-09 13:38 |
|---|---|
| Airport | San Sebastián Airport (LESO) |
| Time | Latitude | Longitude | Altitude | Speed | Heading |
|---|---|---|---|---|---|
| 2026-05-09 13:28 | 43.23809 | -1.87464 | 2417 ft | 139 kts | 13° |
| 2026-05-09 13:28 | 43.24760 | -1.87179 | 2555 ft | 148 kts | 8° |
| 2026-05-09 13:28 | 43.25834 | -1.87187 | 2697 ft | 155 kts | 356° |
| 2026-05-09 13:29 | 43.27012 | -1.87380 | 2176 ft | 184 kts | 353° |
| 2026-05-09 13:29 | 43.28287 | -1.87503 | 1586 ft | 175 kts | 2° |
| 2026-05-09 13:29 | 43.29266 | -1.87841 | 1634 ft | 130 kts | 310° |
| 2026-05-09 13:29 | 43.29540 | -1.88852 | 1759 ft | 137 kts | 294° |
| 2026-05-09 13:30 | 43.30173 | -1.89912 | 1780 ft | 145 kts | 298° |
| 2026-05-09 13:30 | 43.30761 | -1.91090 | 1684 ft | 149 kts | 313° |
| 2026-05-09 13:30 | 43.31701 | -1.91782 | 1726 ft | 161 kts | 325° |
| 2026-05-09 13:30 | 43.31942 | -1.93069 | 1291 ft | 163 kts | 220° |
| 2026-05-09 13:31 | 43.31068 | -1.92741 | 1384 ft | 131 kts | 133° |
| 2026-05-09 13:31 | 43.30485 | -1.91841 | 1189 ft | 120 kts | 121° |
| 2026-05-09 13:31 | 43.30300 | -1.90779 | 965 ft | 123 kts | 88° |
| 2026-05-09 13:31 | 43.30137 | -1.89756 | 1246 ft | 108 kts | 132° |
| 2026-05-09 13:32 | 43.29352 | -1.89351 | 1115 ft | 137 kts | 163° |
| 2026-05-09 13:32 | 43.30081 | -1.89477 | 962 ft | 145 kts | 277° |
| 2026-05-09 13:32 | 43.30577 | -1.90415 | 1182 ft | 124 kts | 329° |
| 2026-05-09 13:33 | 43.31386 | -1.91142 | 1176 ft | 147 kts | 325° |
| 2026-05-09 13:33 | 43.32320 | -1.91942 | 858 ft | 168 kts | 330° |
| 2026-05-09 13:33 | 43.33364 | -1.92742 | 561 ft | 168 kts | 345° |
| 2026-05-09 13:33 | 43.34260 | -1.92188 | 551 ft | 152 kts | 62° |
| 2026-05-09 13:34 | 43.34701 | -1.90899 | 563 ft | 146 kts | 62° |
| 2026-05-09 13:34 | 43.35400 | -1.89879 | 524 ft | 144 kts | 46° |
| 2026-05-09 13:34 | 43.36156 | -1.88943 | 330 ft | 150 kts | 46° |
| 2026-05-09 13:34 | 43.36650 | -1.88002 | 1061 ft | 71 kts | 77° |
| 2026-05-09 13:35 | 43.37171 | -1.87268 | 699 ft | 138 kts | 45° |
| 2026-05-09 13:35 | 43.37314 | -1.86178 | 1316 ft | 75 kts | 82° |
| 2026-05-09 13:35 | 43.37615 | -1.85197 | 786 ft | 155 kts | 54° |
| 2026-05-09 13:35 | 43.37683 | -1.84068 | 1258 ft | 103 kts | 76° |
| 2026-05-09 13:36 | 43.38070 | -1.83169 | 937 ft | 112 kts | 101° |
| 2026-05-09 13:36 | 43.37959 | -1.82232 | 924 ft | 84 kts | 99° |
| 2026-05-09 13:36 | 43.37864 | -1.81533 | 843 ft | 70 kts | 99° |
| 2026-05-09 13:36 | 43.37780 | -1.80838 | 780 ft | 90 kts | 105° |
| 2026-05-09 13:37 | 43.37443 | -1.79983 | 706 ft | 111 kts | 122° |
| 2026-05-09 13:37 | 43.36967 | -1.79119 | 495 ft | 111 kts | 131° |
| 2026-05-09 13:37 | 43.36383 | -1.78637 | 193 ft | 83 kts | 164° |
| 2026-05-09 13:37 | 43.35901 | -1.78795 | 15 ft | 64 kts | 219° |
| 2026-05-09 13:38 | 43.35777 | -1.78931 | 11 ft | 0 kts | 219° |
| 2026-05-09 13:38 | 43.35728 | -1.79006 | 11 ft | 15 kts | 247° |
| 2026-05-09 13:38 | 43.35601 | -1.79124 | 11 ft | 45 kts | 217° |
| 2026-05-09 13:38 | 43.35329 | -1.79435 | 12 ft | 53 kts | 220° |
| 2026-05-09 13:39 | 43.34943 | -1.79793 | 48 ft | 79 kts | 199° |
| 2026-05-09 13:39 | 43.34523 | -1.79565 | 290 ft | 77 kts | 97° |
| 2026-05-09 13:39 | 43.34931 | -1.79291 | 220 ft | 93 kts | 344° |
| 2026-05-09 13:39 | 43.35657 | -1.79545 | 199 ft | 105 kts | 325° |
| 2026-05-09 13:40 | 43.36302 | -1.79849 | 569 ft | 84 kts | 0° |
| 2026-05-09 13:40 | 43.36885 | -1.79881 | 913 ft | 95 kts | 5° |
| 2026-05-09 13:40 | 43.37382 | -1.79304 | 1239 ft | 95 kts | 90° |
| 2026-05-09 13:40 | 43.37054 | -1.78396 | 1061 ft | 136 kts | 137° |
| 2026-05-09 13:41 | 43.36170 | -1.78265 | 837 ft | 157 kts | 227° |
| 2026-05-09 13:41 | 43.35440 | -1.78771 | 237 ft | 158 kts | 128° |
| 2026-05-09 13:41 | 43.34868 | -1.79024 | 550 ft | 133 kts | 327° |
| 2026-05-09 13:41 | 43.35545 | -1.79917 | 228 ft | 125 kts | 264° |
| 2026-05-09 13:42 | 43.35771 | -1.80706 | 942 ft | 111 kts | 339° |
| 2026-05-09 13:42 | 43.36666 | -1.80476 | 598 ft | 141 kts | 49° |
| 2026-05-09 13:42 | 43.36204 | -1.79747 | 469 ft | 149 kts | 175° |
| 2026-05-09 13:42 | 43.35305 | -1.79125 | 141 ft | 150 kts | 113° |
| 2026-05-09 13:43 | 43.34906 | -1.77970 | 413 ft | 131 kts | 135° |
| 2026-05-09 13:43 | 43.34369 | -1.77691 | 484 ft | 134 kts | 191° |
| 2026-05-09 13:43 | 43.34083 | -1.78810 | 367 ft | 125 kts | 304° |
| 2026-05-09 13:43 | 43.34678 | -1.79357 | 246 ft | 98 kts | 329° |
| 2026-05-09 13:44 | 43.35275 | -1.79463 | 28 ft | 85 kts | 40° |
| 2026-05-09 13:44 | 43.35646 | -1.79043 | 11 ft | 46 kts | 39° |
| 2026-05-09 13:44 | 43.35701 | -1.78983 | 10 ft | 3 kts | 19° |
| 2026-05-09 13:44 | 43.35692 | -1.79026 | 11 ft | 9 kts | 214° |
| 2026-05-09 13:45 | 43.35638 | -1.79090 | 11 ft | 12 kts | 244° |
| 2026-05-09 13:45 | 43.35634 | -1.79220 | 10 ft | 16 kts | 237° |
| 2026-05-09 13:45 | 43.35552 | -1.79324 | 10 ft | 16 kts | 233° |
| 2026-05-09 13:45 | 43.35520 | -1.79389 | 0 ft | 2 kts | 231° |
| 2026-05-09 13:46 | 43.35503 | -1.79412 | 9 ft | 5 kts | 222° |
| 2026-05-09 13:46 | 43.35493 | -1.79422 | 10 ft | 0 kts | 208° |
| 2026-05-09 13:46 | 43.35489 | -1.79423 | 10 ft | 0 kts | 180° |
| 2026-05-09 13:46 | 43.35488 | -1.79423 | 10 ft | 1 kts | 172° |
| 2026-05-09 13:47 | 43.35486 | -1.79422 | 10 ft | 1 kts | 154° |
| 2026-05-09 13:47 | 43.35483 | -1.79419 | 10 ft | 0 kts | 134° |